Список аэропортов
Фактическая погода:

Число: 19
Время: 3:00
Температура: +17°C
Ветер: штиль
Видимость: 10 км
Давление: 762 мм рт. ст.
1016.6 гПа (+0.4)

облачно
Время (МСК)Темп. СВетерВлажностьДавлениеОблачностьОсадки
03:00+18ЮВ, 1 м/с91%1016 гПаоблачно
04:00+18ЮВ, 1 м/с93%1016 гПаоблачно
05:00+17ЮВ, 1 м/с95%1017 гПас прояснениями
06:00+17ЮВ, 1 м/с95%1017 гПамалооблачно
07:00+17ЮВ, 1 м/с93%1017 гПаясно
08:00+20СЗ, 1 м/с86%1017 гПаясно
09:00+22С, 2 м/с74%1018 гПаясно
10:00+24С, 4 м/с52%1018 гПаясно
11:00+26С, 5 м/с42%1017 гПаясно
12:00+27С, 5 м/с38%1017 гПаясно
13:00+28С, 4 м/с36%1017 гПаясно
14:00+28С, 4 м/с34%1017 гПаясно
15:00+29С, 4 м/с33%1016 гПамалооблачно
16:00+29С, 5 м/с32%1016 гПамалооблачно
17:00+28С, 5 м/с33%1016 гПамалооблачно
18:00+28С, 5 м/с35%1016 гПаясно
19:00+26С, 5 м/с37%1017 гПаясно
20:00+25С, 4 м/с38%1017 гПаясно
21:00+24СВ, 2 м/с42%1018 гПаясно
22:00+22СВ, 2 м/с48%1018 гПамалооблачно
23:00+20В, 2 м/с53%1018 гПаясно
20 августа
00:00+19В, 1 м/с62%1018 гПаясно
01:00+18В, 1 м/с66%1018 гПаясно
02:00+18В, 2 м/с69%1018 гПаясно
03:00+17В, 2 м/с72%1018 гПаясно
04:00+17В, 2 м/с76%1018 гПаясно
05:00+16СВ, 2 м/с79%1018 гПаясно
06:00+16СВ, 2 м/с83%1019 гПаясно
07:00+17СВ, 2 м/с79%1019 гПаясно
08:00+20СВ, 3 м/с69%1019 гПаясно
09:00+24С, 3 м/с59%1018 гПаясно
10:00+27С, 4 м/с48%1018 гПаясно
11:00+29С, 5 м/с43%1018 гПаясно
12:00+31С, 5 м/с38%1017 гПаясно
13:00+32С, 5 м/с34%1017 гПаясно
14:00+33С, 6 м/с35%1016 гПаясно
15:00+33С, 7 м/с37%1016 гПаясно
16:00+33С, 7 м/с37%1016 гПаясно
17:00+33С, 7 м/с37%1016 гПаясно
18:00+32С, 7 м/с39%1016 гПаясно
19:00+30С, 7 м/с40%1016 гПаясно
20:00+29С, 5 м/с44%1017 гПаясно
21:00+28С, 4 м/с48%1017 гПаясно
22:00+27С, 3 м/с53%1017 гПаясно
23:00+26С, 2 м/с58%1017 гПаясно
21 августа
00:00+25С, 3 м/с60%1017 гПаясно
01:00+25С, 3 м/с62%1017 гПаясно
02:00+23С, 3 м/с68%1017 гПаясно
03:00+23СВ, 3 м/с68%1016 гПаясно